createdAt,value
2023-03-03T00:00:47.161Z,1.90
2023-03-03T00:03:18.626Z,1.80
2023-03-03T00:05:45.451Z,1.80
2023-03-03T00:08:12.268Z,1.90
2023-03-03T00:10:39.744Z,1.90
2023-03-03T00:13:19.381Z,1.80
2023-03-03T00:15:47.265Z,1.90
2023-03-03T00:18:24.901Z,1.90
2023-03-03T00:21:03.166Z,1.90
2023-03-03T00:23:42.553Z,1.80
2023-03-03T00:26:23.469Z,1.90
2023-03-03T00:28:52.084Z,1.90
2023-03-03T00:31:21.964Z,1.90
2023-03-03T00:33:55.616Z,2.00
2023-03-03T00:36:31.683Z,2.00
2023-03-03T00:39:24.848Z,2.00
2023-03-03T00:41:51.831Z,1.90
2023-03-03T00:44:25.693Z,1.90
2023-03-03T00:46:54.168Z,1.80
2023-03-03T00:49:27.098Z,1.90
2023-03-03T00:51:54.589Z,1.80
2023-03-03T00:54:21.363Z,1.70
2023-03-03T00:56:48.026Z,1.70
2023-03-03T00:59:14.670Z,1.80
2023-03-03T01:01:41.378Z,1.70
2023-03-03T01:04:08.023Z,1.70
2023-03-03T01:06:35.020Z,1.70
2023-03-03T01:09:01.656Z,1.60
2023-03-03T01:11:29.217Z,1.60
2023-03-03T01:13:57.021Z,1.60
2023-03-03T01:16:23.867Z,1.70
2023-03-03T01:18:50.632Z,1.70
2023-03-03T01:21:17.421Z,1.70
2023-03-03T01:23:44.447Z,1.70
2023-03-03T01:26:11.175Z,1.80
2023-03-03T01:28:37.850Z,1.80
2023-03-03T01:31:06.274Z,1.80
2023-03-03T01:33:34.663Z,1.70
2023-03-03T01:36:01.698Z,1.80
2023-03-03T01:38:28.676Z,1.80
2023-03-03T01:40:59.392Z,1.80
2023-03-03T01:43:31.089Z,1.80
2023-03-03T01:45:57.791Z,1.80
2023-03-03T01:48:38.667Z,1.70
2023-03-03T01:51:25.241Z,1.80
2023-03-03T01:53:56.496Z,1.80
2023-03-03T01:56:23.722Z,1.80
2023-03-03T01:58:55.121Z,1.70
2023-03-03T02:01:25.835Z,1.70
2023-03-03T02:03:53.383Z,1.80
2023-03-03T02:06:24.041Z,1.70
2023-03-03T02:09:02.117Z,1.70
2023-03-03T02:11:31.402Z,1.70
2023-03-03T02:13:58.074Z,1.90
2023-03-03T02:16:25.508Z,1.80
2023-03-03T02:18:53.808Z,1.80
2023-03-03T02:21:23.353Z,1.90
2023-03-03T02:24:08.866Z,1.90
2023-03-03T02:26:42.898Z,2.00
2023-03-03T02:29:10.409Z,1.90
2023-03-03T02:31:38.546Z,1.80
2023-03-03T02:34:05.933Z,1.80
2023-03-03T02:36:36.164Z,1.90
2023-03-03T02:39:02.944Z,1.80
2023-03-03T02:41:41.817Z,1.70
2023-03-03T02:44:14.365Z,1.80
2023-03-03T02:46:44.475Z,1.80
2023-03-03T02:49:13.758Z,1.90
2023-03-03T02:51:41.167Z,1.80
2023-03-03T02:54:09.063Z,1.80
2023-03-03T02:56:36.902Z,1.80
2023-03-03T02:59:05.006Z,1.80
2023-03-03T03:01:36.954Z,1.80
2023-03-03T03:04:09.397Z,1.80
2023-03-03T03:06:36.488Z,1.70
2023-03-03T03:09:04.325Z,1.70
2023-03-03T03:11:31.096Z,1.70
2023-03-03T03:13:57.824Z,1.60
2023-03-03T03:16:24.665Z,1.70
2023-03-03T03:18:51.869Z,1.70
2023-03-03T03:21:19.103Z,1.70
2023-03-03T03:23:45.810Z,1.90
2023-03-03T03:26:12.898Z,1.70
2023-03-03T03:28:40.327Z,1.80
2023-03-03T03:31:09.228Z,1.70
2023-03-03T03:33:36.366Z,1.70
2023-03-03T03:36:04.593Z,1.60
2023-03-03T03:38:31.853Z,1.70
2023-03-03T03:40:59.167Z,1.60
2023-03-03T03:43:26.782Z,1.60
2023-03-03T03:45:53.565Z,1.70
2023-03-03T03:48:20.850Z,1.60
2023-03-03T03:50:50.884Z,1.80
2023-03-03T03:53:18.667Z,1.70
2023-03-03T03:55:46.622Z,1.60
2023-03-03T03:58:15.009Z,1.60
2023-03-03T04:00:43.061Z,1.60
2023-03-03T04:03:11.086Z,1.60
2023-03-03T04:05:38.003Z,1.70
2023-03-03T04:08:05.113Z,1.60
2023-03-03T04:10:32.051Z,1.60
2023-03-03T04:12:59.091Z,1.60
2023-03-03T04:15:25.864Z,1.60
2023-03-03T04:17:52.693Z,1.50
2023-03-03T04:20:19.467Z,1.60
2023-03-03T04:22:46.291Z,1.60
2023-03-03T04:25:15.560Z,1.60
2023-03-03T04:27:43.437Z,1.50
2023-03-03T04:30:11.863Z,1.60
2023-03-03T04:32:38.744Z,1.50
2023-03-03T04:35:08.540Z,1.50
2023-03-03T04:37:36.399Z,1.50
2023-03-03T04:40:04.637Z,1.50
2023-03-03T04:42:32.687Z,1.60
2023-03-03T04:44:59.354Z,1.50
2023-03-03T04:47:26.340Z,1.60
2023-03-03T04:49:53.019Z,1.50
2023-03-03T04:52:19.787Z,1.50
2023-03-03T04:54:46.506Z,1.50
2023-03-03T04:57:13.163Z,1.50
2023-03-03T04:59:39.831Z,1.40
2023-03-03T05:02:06.543Z,1.50
2023-03-03T05:04:33.739Z,1.50
2023-03-03T05:07:00.513Z,1.40
2023-03-03T05:09:27.527Z,1.40
2023-03-03T05:11:54.441Z,1.40
2023-03-03T05:14:21.160Z,1.40
2023-03-03T05:16:47.995Z,1.30
2023-03-03T05:19:15.044Z,1.30
2023-03-03T05:21:42.454Z,1.30
2023-03-03T05:24:11.386Z,1.30
2023-03-03T05:26:38.319Z,1.30
2023-03-03T05:29:06.100Z,1.40
2023-03-03T05:31:33.414Z,1.30
2023-03-03T05:34:00.387Z,1.30
2023-03-03T05:36:27.059Z,1.30
2023-03-03T05:38:53.840Z,1.30
2023-03-03T05:41:20.622Z,1.30
2023-03-03T05:43:47.532Z,1.40
2023-03-03T05:46:14.275Z,1.40
2023-03-03T05:48:41.028Z,1.30
2023-03-03T05:51:07.699Z,1.30
2023-03-03T05:53:34.440Z,1.30
2023-03-03T05:56:01.273Z,1.40
2023-03-03T05:58:28.295Z,1.30
2023-03-03T06:00:55.410Z,1.40
2023-03-03T06:03:22.283Z,1.40
2023-03-03T06:05:49.065Z,1.40
2023-03-03T06:08:15.815Z,1.30
2023-03-03T06:10:42.545Z,1.40
2023-03-03T06:13:09.250Z,1.30
2023-03-03T06:15:36.068Z,1.20
2023-03-03T06:18:03.258Z,1.20
2023-03-03T06:20:30.181Z,1.20
2023-03-03T06:22:57.014Z,1.10
2023-03-03T06:25:23.821Z,1.10
2023-03-03T06:27:50.612Z,1.10
2023-03-03T06:30:18.872Z,1.20
2023-03-03T06:32:45.951Z,1.30
2023-03-03T06:35:12.896Z,1.30
2023-03-03T06:37:39.883Z,1.30
2023-03-03T06:40:07.767Z,1.30
2023-03-03T06:42:34.435Z,1.30
2023-03-03T06:45:01.099Z,1.30
2023-03-03T06:47:27.878Z,1.30
2023-03-03T06:49:54.567Z,1.20
2023-03-03T06:52:25.479Z,1.30
2023-03-03T06:54:58.703Z,1.30
2023-03-03T06:57:26.980Z,1.30
2023-03-03T06:59:57.147Z,1.30
2023-03-03T07:02:23.838Z,1.40
2023-03-03T07:04:50.532Z,1.40
2023-03-03T07:07:25.439Z,1.40
2023-03-03T07:09:54.732Z,1.40
2023-03-03T07:12:29.249Z,1.40
2023-03-03T07:15:21.520Z,1.30
2023-03-03T07:17:51.186Z,1.40
2023-03-03T07:20:32.191Z,1.40
2023-03-03T07:22:59.044Z,1.50
2023-03-03T07:25:38.106Z,1.50
2023-03-03T07:28:24.927Z,1.60
2023-03-03T07:30:56.088Z,1.60
2023-03-03T07:33:39.413Z,1.60
2023-03-03T07:36:22.494Z,1.60
2023-03-03T07:38:54.200Z,1.50
2023-03-03T07:41:23.408Z,1.50
2023-03-03T07:43:54.650Z,1.60
2023-03-03T07:46:28.069Z,1.60
2023-03-03T07:48:57.592Z,1.70
2023-03-03T07:51:30.018Z,1.70
2023-03-03T07:54:18.168Z,1.70
2023-03-03T07:56:45.632Z,1.80
2023-03-03T07:59:21.972Z,1.80
2023-03-03T08:01:53.295Z,1.80
2023-03-03T08:04:33.876Z,1.90
2023-03-03T08:07:02.072Z,1.90
2023-03-03T08:09:39.145Z,2.00
2023-03-03T08:12:37.989Z,2.00
2023-03-03T08:15:18.497Z,2.00
2023-03-03T08:17:46.277Z,1.90
2023-03-03T08:20:34.648Z,2.00
2023-03-03T08:23:01.298Z,2.00
2023-03-03T08:25:27.949Z,2.00
2023-03-03T08:27:54.941Z,2.10
2023-03-03T08:30:21.587Z,2.10
2023-03-03T08:32:48.628Z,2.20
2023-03-03T08:35:15.421Z,2.10
2023-03-03T08:37:42.191Z,2.10
2023-03-03T08:40:09.573Z,2.20
2023-03-03T08:42:36.544Z,2.30
2023-03-03T08:45:03.375Z,2.40
2023-03-03T08:47:30.105Z,2.30
2023-03-03T08:49:56.784Z,2.40
2023-03-03T08:52:23.433Z,2.50
2023-03-03T08:54:50.136Z,2.50
2023-03-03T08:57:16.904Z,2.60
2023-03-03T08:59:43.579Z,2.40
2023-03-03T09:02:10.297Z,2.30
2023-03-03T09:04:37.127Z,2.30
2023-03-03T09:07:03.787Z,2.10
2023-03-03T09:09:30.624Z,2.30
2023-03-03T09:12:13.375Z,2.20
2023-03-03T09:14:40.044Z,2.30
2023-03-03T09:17:26.523Z,2.40
2023-03-03T09:19:59.642Z,2.30
2023-03-03T09:22:27.953Z,2.30
2023-03-03T09:24:58.098Z,2.30
2023-03-03T09:27:30.824Z,2.40
2023-03-03T09:30:15.496Z,2.50
2023-03-03T09:32:43.236Z,2.60
2023-03-03T09:35:40.281Z,2.70
2023-03-03T09:38:29.750Z,2.60
2023-03-03T09:41:05.590Z,2.50
2023-03-03T09:43:58.347Z,2.70
2023-03-03T09:46:52.970Z,2.70
2023-03-03T09:49:32.368Z,2.60
2023-03-03T09:52:19.964Z,2.80
2023-03-03T09:55:13.835Z,2.90
2023-03-03T09:58:15.404Z,3.00
2023-03-03T10:00:47.576Z,2.90
2023-03-03T10:03:26.184Z,2.80
2023-03-03T10:06:30.862Z,2.90
2023-03-03T10:09:01.497Z,3.00
2023-03-03T10:11:50.291Z,3.00
2023-03-03T10:14:36.794Z,3.00
2023-03-03T10:17:15.438Z,3.10
2023-03-03T10:20:12.414Z,3.00
2023-03-03T10:23:03.676Z,3.20
2023-03-03T10:25:50.683Z,3.10
2023-03-03T10:28:30.145Z,3.10
2023-03-03T10:31:15.823Z,3.20
2023-03-03T10:33:53.569Z,3.10
2023-03-03T10:36:27.914Z,3.10
2023-03-03T10:39:19.083Z,3.10
2023-03-03T10:41:59.629Z,3.10
2023-03-03T10:44:58.899Z,3.10
2023-03-03T10:47:54.682Z,3.30
2023-03-03T10:50:42.605Z,3.30
2023-03-03T10:53:15.643Z,3.30
2023-03-03T10:55:45.116Z,3.40
2023-03-03T10:58:38.387Z,3.50
2023-03-03T11:01:24.803Z,3.50
2023-03-03T11:04:23.564Z,3.70
2023-03-03T11:07:12.558Z,3.80
2023-03-03T11:10:14.825Z,3.70
2023-03-03T11:13:03.223Z,3.80
2023-03-03T11:15:51.532Z,3.80
2023-03-03T11:18:47.984Z,4.00
2023-03-03T11:21:29.680Z,4.10
2023-03-03T11:23:59.812Z,4.20
2023-03-03T11:26:32.643Z,4.20
2023-03-03T11:29:43.588Z,4.20
2023-03-03T11:32:42.250Z,4.50
2023-03-03T11:35:32.665Z,4.60
2023-03-03T11:38:25.421Z,4.80
2023-03-03T11:41:12.337Z,4.90
2023-03-03T11:43:47.114Z,4.70
2023-03-03T11:46:22.436Z,4.90
2023-03-03T11:49:17.503Z,5.00
2023-03-03T11:52:23.982Z,5.00
2023-03-03T11:54:56.557Z,5.10
2023-03-03T12:00:11.661Z,4.50
2023-03-03T12:03:10.946Z,4.70
2023-03-03T12:05:50.119Z,4.70
2023-03-03T12:24:13.463Z,4.50
2023-03-03T12:26:43.233Z,4.60
2023-03-03T12:29:19.629Z,4.50
2023-03-03T12:31:57.640Z,4.60
2023-03-03T12:42:52.985Z,4.70
2023-03-03T12:56:07.438Z,5.30
2023-03-03T13:04:08.649Z,5.30
